sensor_id;sensor_type;location;lat;lon;timestamp;P1;durP1;ratioP1;P2;durP2;ratioP2
36373;SDS011;22399;51.346;12.372;2023-03-11T00:00:45;1.65;;;0.85;;
36373;SDS011;22399;51.346;12.372;2023-03-11T00:03:16;0.80;;;0.80;;
36373;SDS011;22399;51.346;12.372;2023-03-11T00:05:46;0.38;;;0.28;;
36373;SDS011;22399;51.346;12.372;2023-03-11T00:08:16;1.52;;;0.38;;
36373;SDS011;22399;51.346;12.372;2023-03-11T00:10:46;0.70;;;0.35;;
36373;SDS011;22399;51.346;12.372;2023-03-11T00:13:18;1.90;;;0.55;;
36373;SDS011;22399;51.346;12.372;2023-03-11T00:15:47;0.75;;;0.50;;
36373;SDS011;22399;51.346;12.372;2023-03-11T00:18:18;0.52;;;0.52;;
36373;SDS011;22399;51.346;12.372;2023-03-11T00:20:46;2.10;;;0.80;;
36373;SDS011;22399;51.346;12.372;2023-03-11T00:23:15;3.83;;;0.70;;
36373;SDS011;22399;51.346;12.372;2023-03-11T00:25:44;1.88;;;0.82;;
36373;SDS011;22399;51.346;12.372;2023-03-11T00:28:13;0.85;;;0.77;;
36373;SDS011;22399;51.346;12.372;2023-03-11T00:30:43;3.03;;;0.73;;
36373;SDS011;22399;51.346;12.372;2023-03-11T00:33:13;1.60;;;1.05;;
36373;SDS011;22399;51.346;12.372;2023-03-11T00:35:43;2.70;;;1.15;;
36373;SDS011;22399;51.346;12.372;2023-03-11T00:38:12;2.00;;;1.13;;
36373;SDS011;22399;51.346;12.372;2023-03-11T00:40:43;2.47;;;1.10;;
36373;SDS011;22399;51.346;12.372;2023-03-11T00:43:12;1.67;;;1.33;;
36373;SDS011;22399;51.346;12.372;2023-03-11T00:45:40;2.35;;;1.42;;
36373;SDS011;22399;51.346;12.372;2023-03-11T00:48:10;2.45;;;1.23;;
36373;SDS011;22399;51.346;12.372;2023-03-11T00:50:39;3.83;;;1.25;;
36373;SDS011;22399;51.346;12.372;2023-03-11T00:53:09;3.90;;;1.80;;
36373;SDS011;22399;51.346;12.372;2023-03-11T00:55:38;3.15;;;1.45;;
36373;SDS011;22399;51.346;12.372;2023-03-11T00:58:10;3.28;;;1.70;;
36373;SDS011;22399;51.346;12.372;2023-03-11T01:00:48;2.33;;;1.17;;
36373;SDS011;22399;51.346;12.372;2023-03-11T01:03:17;4.43;;;1.73;;
36373;SDS011;22399;51.346;12.372;2023-03-11T01:05:45;3.50;;;1.67;;
36373;SDS011;22399;51.346;12.372;2023-03-11T01:08:15;5.68;;;1.63;;
36373;SDS011;22399;51.346;12.372;2023-03-11T01:10:44;4.00;;;2.05;;
36373;SDS011;22399;51.346;12.372;2023-03-11T01:13:12;7.15;;;2.75;;
36373;SDS011;22399;51.346;12.372;2023-03-11T01:15:40;4.13;;;1.90;;
36373;SDS011;22399;51.346;12.372;2023-03-11T01:18:09;5.07;;;2.05;;
36373;SDS011;22399;51.346;12.372;2023-03-11T01:20:37;9.35;;;3.45;;
36373;SDS011;22399;51.346;12.372;2023-03-11T01:23:06;3.88;;;2.42;;
36373;SDS011;22399;51.346;12.372;2023-03-11T01:25:36;3.65;;;1.75;;
36373;SDS011;22399;51.346;12.372;2023-03-11T01:28:05;5.25;;;2.70;;
36373;SDS011;22399;51.346;12.372;2023-03-11T01:30:35;3.80;;;2.20;;
36373;SDS011;22399;51.346;12.372;2023-03-11T01:33:06;5.38;;;3.25;;
36373;SDS011;22399;51.346;12.372;2023-03-11T01:35:37;4.20;;;2.45;;
36373;SDS011;22399;51.346;12.372;2023-03-11T01:38:08;5.22;;;2.47;;
36373;SDS011;22399;51.346;12.372;2023-03-11T01:40:40;4.43;;;2.35;;
36373;SDS011;22399;51.346;12.372;2023-03-11T01:46:12;4.38;;;2.35;;
36373;SDS011;22399;51.346;12.372;2023-03-11T01:48:44;3.95;;;1.98;;
36373;SDS011;22399;51.346;12.372;2023-03-11T01:51:15;7.15;;;3.50;;
36373;SDS011;22399;51.346;12.372;2023-03-11T01:53:55;6.78;;;2.42;;
36373;SDS011;22399;51.346;12.372;2023-03-11T01:56:27;5.18;;;2.15;;
36373;SDS011;22399;51.346;12.372;2023-03-11T01:58:57;5.05;;;2.08;;
36373;SDS011;22399;51.346;12.372;2023-03-11T02:01:26;2.85;;;1.90;;
36373;SDS011;22399;51.346;12.372;2023-03-11T02:03:57;6.15;;;3.15;;
36373;SDS011;22399;51.346;12.372;2023-03-11T02:06:26;8.07;;;3.42;;
36373;SDS011;22399;51.346;12.372;2023-03-11T02:08:56;7.63;;;2.95;;
36373;SDS011;22399;51.346;12.372;2023-03-11T02:11:27;5.60;;;1.80;;
36373;SDS011;22399;51.346;12.372;2023-03-11T02:13:59;4.82;;;1.83;;
36373;SDS011;22399;51.346;12.372;2023-03-11T02:16:30;9.52;;;3.83;;
36373;SDS011;22399;51.346;12.372;2023-03-11T02:19:03;9.90;;;3.55;;
36373;SDS011;22399;51.346;12.372;2023-03-11T02:21:43;8.25;;;3.75;;
36373;SDS011;22399;51.346;12.372;2023-03-11T02:24:12;5.63;;;2.15;;
36373;SDS011;22399;51.346;12.372;2023-03-11T02:26:51;4.45;;;2.45;;
36373;SDS011;22399;51.346;12.372;2023-03-11T02:29:22;9.13;;;3.63;;
36373;SDS011;22399;51.346;12.372;2023-03-11T02:31:54;6.22;;;3.70;;
36373;SDS011;22399;51.346;12.372;2023-03-11T02:34:24;7.20;;;3.22;;
36373;SDS011;22399;51.346;12.372;2023-03-11T02:36:54;7.68;;;3.15;;
36373;SDS011;22399;51.346;12.372;2023-03-11T02:39:28;9.05;;;3.20;;
36373;SDS011;22399;51.346;12.372;2023-03-11T02:41:59;8.40;;;3.17;;
36373;SDS011;22399;51.346;12.372;2023-03-11T02:44:32;10.52;;;3.63;;
36373;SDS011;22399;51.346;12.372;2023-03-11T02:47:01;8.90;;;3.90;;
36373;SDS011;22399;51.346;12.372;2023-03-11T02:49:30;4.10;;;2.22;;
36373;SDS011;22399;51.346;12.372;2023-03-11T02:51:58;8.07;;;3.78;;
36373;SDS011;22399;51.346;12.372;2023-03-11T02:54:28;5.35;;;2.50;;
36373;SDS011;22399;51.346;12.372;2023-03-11T02:56:57;9.48;;;3.17;;
36373;SDS011;22399;51.346;12.372;2023-03-11T02:59:27;7.78;;;3.28;;
36373;SDS011;22399;51.346;12.372;2023-03-11T03:01:58;10.38;;;4.60;;
36373;SDS011;22399;51.346;12.372;2023-03-11T03:04:27;7.70;;;3.08;;
36373;SDS011;22399;51.346;12.372;2023-03-11T03:06:57;9.23;;;2.92;;
36373;SDS011;22399;51.346;12.372;2023-03-11T03:09:26;5.43;;;2.17;;
36373;SDS011;22399;51.346;12.372;2023-03-11T03:11:54;6.53;;;3.63;;
36373;SDS011;22399;51.346;12.372;2023-03-11T03:14:23;9.80;;;4.20;;
36373;SDS011;22399;51.346;12.372;2023-03-11T03:16:52;12.55;;;4.03;;
36373;SDS011;22399;51.346;12.372;2023-03-11T03:19:21;9.77;;;4.55;;
36373;SDS011;22399;51.346;12.372;2023-03-11T03:21:50;11.45;;;4.43;;
36373;SDS011;22399;51.346;12.372;2023-03-11T03:24:20;8.63;;;3.33;;
36373;SDS011;22399;51.346;12.372;2023-03-11T03:26:48;9.60;;;3.55;;
36373;SDS011;22399;51.346;12.372;2023-03-11T03:29:17;14.68;;;4.47;;
36373;SDS011;22399;51.346;12.372;2023-03-11T03:31:47;8.32;;;3.92;;
36373;SDS011;22399;51.346;12.372;2023-03-11T03:34:17;10.70;;;5.05;;
36373;SDS011;22399;51.346;12.372;2023-03-11T03:36:45;9.88;;;4.10;;
36373;SDS011;22399;51.346;12.372;2023-03-11T03:39:15;9.27;;;3.50;;
36373;SDS011;22399;51.346;12.372;2023-03-11T03:41:47;9.57;;;3.55;;
36373;SDS011;22399;51.346;12.372;2023-03-11T03:44:16;10.20;;;3.85;;
36373;SDS011;22399;51.346;12.372;2023-03-11T03:46:45;8.10;;;4.15;;
36373;SDS011;22399;51.346;12.372;2023-03-11T03:49:14;8.38;;;3.65;;
36373;SDS011;22399;51.346;12.372;2023-03-11T03:51:44;4.63;;;2.78;;
36373;SDS011;22399;51.346;12.372;2023-03-11T03:54:23;18.30;;;4.82;;
36373;SDS011;22399;51.346;12.372;2023-03-11T03:56:52;13.35;;;5.05;;
36373;SDS011;22399;51.346;12.372;2023-03-11T03:59:20;16.00;;;5.10;;
36373;SDS011;22399;51.346;12.372;2023-03-11T04:01:53;9.55;;;4.22;;
36373;SDS011;22399;51.346;12.372;2023-03-11T04:04:22;11.73;;;5.03;;
36373;SDS011;22399;51.346;12.372;2023-03-11T04:06:52;13.57;;;5.20;;
36373;SDS011;22399;51.346;12.372;2023-03-11T04:09:22;13.88;;;5.05;;
36373;SDS011;22399;51.346;12.372;2023-03-11T04:11:50;9.82;;;4.63;;
36373;SDS011;22399;51.346;12.372;2023-03-11T04:14:19;18.02;;;4.82;;
36373;SDS011;22399;51.346;12.372;2023-03-11T04:16:53;19.55;;;6.32;;
36373;SDS011;22399;51.346;12.372;2023-03-11T04:19:23;9.98;;;4.25;;
36373;SDS011;22399;51.346;12.372;2023-03-11T04:21:53;7.07;;;3.70;;
36373;SDS011;22399;51.346;12.372;2023-03-11T04:24:23;14.45;;;5.13;;
36373;SDS011;22399;51.346;12.372;2023-03-11T04:26:52;15.02;;;5.32;;
36373;SDS011;22399;51.346;12.372;2023-03-11T04:29:21;7.50;;;2.55;;
36373;SDS011;22399;51.346;12.372;2023-03-11T04:31:51;8.82;;;3.83;;
36373;SDS011;22399;51.346;12.372;2023-03-11T04:34:20;14.43;;;5.07;;
36373;SDS011;22399;51.346;12.372;2023-03-11T04:36:50;11.43;;;4.15;;
36373;SDS011;22399;51.346;12.372;2023-03-11T04:39:23;13.50;;;4.80;;
36373;SDS011;22399;51.346;12.372;2023-03-11T04:41:53;11.60;;;4.00;;
36373;SDS011;22399;51.346;12.372;2023-03-11T04:44:24;8.77;;;3.53;;
36373;SDS011;22399;51.346;12.372;2023-03-11T04:46:53;11.77;;;4.55;;
36373;SDS011;22399;51.346;12.372;2023-03-11T04:49:22;12.43;;;4.22;;
36373;SDS011;22399;51.346;12.372;2023-03-11T04:51:51;10.15;;;4.28;;
36373;SDS011;22399;51.346;12.372;2023-03-11T04:54:21;6.88;;;2.63;;
36373;SDS011;22399;51.346;12.372;2023-03-11T04:56:52;7.63;;;3.40;;
36373;SDS011;22399;51.346;12.372;2023-03-11T04:59:22;11.15;;;4.50;;
36373;SDS011;22399;51.346;12.372;2023-03-11T05:01:51;11.05;;;5.00;;
36373;SDS011;22399;51.346;12.372;2023-03-11T05:04:19;12.20;;;4.32;;
36373;SDS011;22399;51.346;12.372;2023-03-11T05:06:48;13.52;;;4.95;;
36373;SDS011;22399;51.346;12.372;2023-03-11T05:09:19;15.25;;;5.28;;
36373;SDS011;22399;51.346;12.372;2023-03-11T05:11:49;12.05;;;4.50;;
36373;SDS011;22399;51.346;12.372;2023-03-11T05:14:19;15.90;;;3.97;;
36373;SDS011;22399;51.346;12.372;2023-03-11T05:16:49;16.75;;;5.47;;
36373;SDS011;22399;51.346;12.372;2023-03-11T05:19:18;23.00;;;6.80;;
36373;SDS011;22399;51.346;12.372;2023-03-11T05:22:06;12.82;;;5.70;;
36373;SDS011;22399;51.346;12.372;2023-03-11T05:24:35;15.05;;;4.82;;
36373;SDS011;22399;51.346;12.372;2023-03-11T05:27:05;13.80;;;5.45;;
36373;SDS011;22399;51.346;12.372;2023-03-11T05:29:35;16.60;;;5.85;;
36373;SDS011;22399;51.346;12.372;2023-03-11T05:32:07;18.17;;;5.68;;
36373;SDS011;22399;51.346;12.372;2023-03-11T05:34:35;14.75;;;5.43;;
36373;SDS011;22399;51.346;12.372;2023-03-11T05:37:05;16.92;;;7.18;;
36373;SDS011;22399;51.346;12.372;2023-03-11T05:39:34;19.58;;;7.00;;
36373;SDS011;22399;51.346;12.372;2023-03-11T05:42:04;13.80;;;6.03;;
36373;SDS011;22399;51.346;12.372;2023-03-11T05:44:35;14.43;;;5.63;;
36373;SDS011;22399;51.346;12.372;2023-03-11T05:47:03;15.98;;;6.38;;
36373;SDS011;22399;51.346;12.372;2023-03-11T05:49:32;25.05;;;6.50;;
36373;SDS011;22399;51.346;12.372;2023-03-11T05:52:01;14.02;;;5.00;;
36373;SDS011;22399;51.346;12.372;2023-03-11T05:54:30;20.15;;;6.30;;
36373;SDS011;22399;51.346;12.372;2023-03-11T05:56:59;15.38;;;6.18;;
36373;SDS011;22399;51.346;12.372;2023-03-11T05:59:31;15.52;;;5.03;;
36373;SDS011;22399;51.346;12.372;2023-03-11T06:02:03;18.05;;;5.18;;
36373;SDS011;22399;51.346;12.372;2023-03-11T06:04:31;16.60;;;6.10;;
36373;SDS011;22399;51.346;12.372;2023-03-11T06:07:01;13.55;;;5.78;;
36373;SDS011;22399;51.346;12.372;2023-03-11T06:09:33;15.73;;;4.97;;
36373;SDS011;22399;51.346;12.372;2023-03-11T06:12:05;13.80;;;4.18;;
36373;SDS011;22399;51.346;12.372;2023-03-11T06:14:49;11.43;;;5.30;;
36373;SDS011;22399;51.346;12.372;2023-03-11T06:17:17;13.93;;;4.93;;
36373;SDS011;22399;51.346;12.372;2023-03-11T06:19:46;15.63;;;4.57;;
36373;SDS011;22399;51.346;12.372;2023-03-11T06:22:15;9.77;;;3.75;;
36373;SDS011;22399;51.346;12.372;2023-03-11T06:24:44;8.43;;;3.90;;
36373;SDS011;22399;51.346;12.372;2023-03-11T06:27:12;8.57;;;3.35;;
36373;SDS011;22399;51.346;12.372;2023-03-11T06:29:41;8.10;;;4.10;;
36373;SDS011;22399;51.346;12.372;2023-03-11T06:32:12;11.18;;;4.53;;
36373;SDS011;22399;51.346;12.372;2023-03-11T06:34:40;14.20;;;4.38;;
36373;SDS011;22399;51.346;12.372;2023-03-11T06:37:09;8.15;;;3.00;;
36373;SDS011;22399;51.346;12.372;2023-03-11T06:39:38;9.45;;;3.40;;
36373;SDS011;22399;51.346;12.372;2023-03-11T06:42:10;14.35;;;5.68;;
36373;SDS011;22399;51.346;12.372;2023-03-11T06:44:41;14.80;;;4.63;;
36373;SDS011;22399;51.346;12.372;2023-03-11T06:47:12;10.65;;;4.35;;
36373;SDS011;22399;51.346;12.372;2023-03-11T06:49:40;12.70;;;4.03;;
36373;SDS011;22399;51.346;12.372;2023-03-11T06:52:09;15.65;;;4.55;;
36373;SDS011;22399;51.346;12.372;2023-03-11T06:54:38;12.07;;;4.00;;
36373;SDS011;22399;51.346;12.372;2023-03-11T06:57:07;13.65;;;4.70;;
36373;SDS011;22399;51.346;12.372;2023-03-11T06:59:36;10.80;;;3.92;;
36373;SDS011;22399;51.346;12.372;2023-03-11T07:02:06;19.08;;;4.47;;
36373;SDS011;22399;51.346;12.372;2023-03-11T07:04:42;6.28;;;3.08;;
36373;SDS011;22399;51.346;12.372;2023-03-11T07:07:11;11.55;;;4.53;;
36373;SDS011;22399;51.346;12.372;2023-03-11T07:09:39;8.50;;;3.67;;
36373;SDS011;22399;51.346;12.372;2023-03-11T07:12:11;9.68;;;3.45;;
36373;SDS011;22399;51.346;12.372;2023-03-11T07:14:41;8.02;;;3.90;;
36373;SDS011;22399;51.346;12.372;2023-03-11T07:17:09;8.63;;;3.55;;
36373;SDS011;22399;51.346;12.372;2023-03-11T07:19:49;8.13;;;4.15;;
36373;SDS011;22399;51.346;12.372;2023-03-11T07:22:17;10.77;;;4.18;;
36373;SDS011;22399;51.346;12.372;2023-03-11T07:24:46;11.25;;;2.92;;
36373;SDS011;22399;51.346;12.372;2023-03-11T07:27:15;9.90;;;3.67;;
36373;SDS011;22399;51.346;12.372;2023-03-11T07:29:44;11.35;;;4.07;;
36373;SDS011;22399;51.346;12.372;2023-03-11T07:32:13;7.55;;;3.58;;
36373;SDS011;22399;51.346;12.372;2023-03-11T07:34:42;10.25;;;3.40;;
36373;SDS011;22399;51.346;12.372;2023-03-11T07:37:11;6.53;;;2.92;;
36373;SDS011;22399;51.346;12.372;2023-03-11T07:39:40;5.28;;;3.10;;
36373;SDS011;22399;51.346;12.372;2023-03-11T07:42:09;11.55;;;4.05;;
36373;SDS011;22399;51.346;12.372;2023-03-11T07:44:38;6.93;;;3.10;;
36373;SDS011;22399;51.346;12.372;2023-03-11T07:47:06;8.15;;;3.30;;
36373;SDS011;22399;51.346;12.372;2023-03-11T07:49:36;16.08;;;4.95;;
36373;SDS011;22399;51.346;12.372;2023-03-11T07:52:07;16.52;;;3.20;;
36373;SDS011;22399;51.346;12.372;2023-03-11T07:54:37;9.32;;;4.07;;
36373;SDS011;22399;51.346;12.372;2023-03-11T07:57:05;11.43;;;3.83;;
36373;SDS011;22399;51.346;12.372;2023-03-11T07:59:39;23.75;;;4.57;;
36373;SDS011;22399;51.346;12.372;2023-03-11T08:02:08;6.20;;;3.85;;
36373;SDS011;22399;51.346;12.372;2023-03-11T08:04:37;10.93;;;4.15;;
36373;SDS011;22399;51.346;12.372;2023-03-11T08:07:06;9.25;;;3.88;;
36373;SDS011;22399;51.346;12.372;2023-03-11T08:09:34;9.50;;;3.67;;
36373;SDS011;22399;51.346;12.372;2023-03-11T08:12:05;9.38;;;3.97;;
36373;SDS011;22399;51.346;12.372;2023-03-11T08:14:34;12.80;;;4.22;;
36373;SDS011;22399;51.346;12.372;2023-03-11T08:17:02;6.97;;;3.60;;
36373;SDS011;22399;51.346;12.372;2023-03-11T08:19:31;7.55;;;3.22;;
36373;SDS011;22399;51.346;12.372;2023-03-11T08:22:00;8.00;;;3.65;;
36373;SDS011;22399;51.346;12.372;2023-03-11T08:24:29;9.25;;;4.10;;
36373;SDS011;22399;51.346;12.372;2023-03-11T08:26:57;25.73;;;5.28;;
36373;SDS011;22399;51.346;12.372;2023-03-11T08:29:27;12.23;;;4.05;;
36373;SDS011;22399;51.346;12.372;2023-03-11T08:31:56;11.52;;;4.60;;
36373;SDS011;22399;51.346;12.372;2023-03-11T08:34:24;7.10;;;3.42;;
36373;SDS011;22399;51.346;12.372;2023-03-11T08:36:53;8.05;;;3.40;;
36373;SDS011;22399;51.346;12.372;2023-03-11T08:39:22;11.82;;;3.65;;
36373;SDS011;22399;51.346;12.372;2023-03-11T08:41:51;7.30;;;2.88;;
36373;SDS011;22399;51.346;12.372;2023-03-11T08:44:19;6.93;;;2.78;;
36373;SDS011;22399;51.346;12.372;2023-03-11T08:46:49;10.23;;;2.60;;
36373;SDS011;22399;51.346;12.372;2023-03-11T08:49:17;7.30;;;2.70;;
36373;SDS011;22399;51.346;12.372;2023-03-11T08:51:46;4.40;;;2.40;;
36373;SDS011;22399;51.346;12.372;2023-03-11T08:54:14;3.95;;;1.95;;
36373;SDS011;22399;51.346;12.372;2023-03-11T08:56:43;5.57;;;2.20;;
36373;SDS011;22399;51.346;12.372;2023-03-11T08:59:13;6.53;;;3.08;;
36373;SDS011;22399;51.346;12.372;2023-03-11T09:01:42;5.47;;;2.60;;
36373;SDS011;22399;51.346;12.372;2023-03-11T09:04:12;8.63;;;3.08;;
36373;SDS011;22399;51.346;12.372;2023-03-11T09:06:41;8.50;;;3.95;;
36373;SDS011;22399;51.346;12.372;2023-03-11T09:09:10;4.53;;;2.28;;
36373;SDS011;22399;51.346;12.372;2023-03-11T09:11:39;11.27;;;4.03;;
36373;SDS011;22399;51.346;12.372;2023-03-11T09:14:08;4.85;;;2.60;;
36373;SDS011;22399;51.346;12.372;2023-03-11T09:16:36;5.50;;;2.85;;
36373;SDS011;22399;51.346;12.372;2023-03-11T09:19:05;7.80;;;3.85;;
36373;SDS011;22399;51.346;12.372;2023-03-11T09:21:35;7.80;;;2.80;;
36373;SDS011;22399;51.346;12.372;2023-03-11T09:24:04;7.43;;;2.45;;
36373;SDS011;22399;51.346;12.372;2023-03-11T09:26:35;5.05;;;2.85;;
36373;SDS011;22399;51.346;12.372;2023-03-11T09:29:04;13.50;;;3.72;;
36373;SDS011;22399;51.346;12.372;2023-03-11T09:31:32;10.45;;;2.75;;
36373;SDS011;22399;51.346;12.372;2023-03-11T09:34:01;5.97;;;2.83;;
36373;SDS011;22399;51.346;12.372;2023-03-11T09:36:30;8.45;;;3.25;;
36373;SDS011;22399;51.346;12.372;2023-03-11T09:39:00;15.27;;;2.47;;
36373;SDS011;22399;51.346;12.372;2023-03-11T09:41:32;12.57;;;3.25;;
36373;SDS011;22399;51.346;12.372;2023-03-11T09:44:24;7.30;;;3.03;;
36373;SDS011;22399;51.346;12.372;2023-03-11T09:47:05;19.42;;;2.88;;
36373;SDS011;22399;51.346;12.372;2023-03-11T09:50:00;6.38;;;3.33;;
36373;SDS011;22399;51.346;12.372;2023-03-11T09:52:45;4.60;;;2.80;;
36373;SDS011;22399;51.346;12.372;2023-03-11T09:55:25;8.02;;;3.08;;
36373;SDS011;22399;51.346;12.372;2023-03-11T09:58:00;5.72;;;3.45;;
36373;SDS011;22399;51.346;12.372;2023-03-11T10:00:34;10.20;;;2.88;;
36373;SDS011;22399;51.346;12.372;2023-03-11T10:03:04;7.82;;;3.08;;
36373;SDS011;22399;51.346;12.372;2023-03-11T10:05:39;3.60;;;2.45;;
36373;SDS011;22399;51.346;12.372;2023-03-11T10:08:13;5.85;;;2.88;;
36373;SDS011;22399;51.346;12.372;2023-03-11T10:10:59;7.18;;;3.03;;
36373;SDS011;22399;51.346;12.372;2023-03-11T10:13:38;6.10;;;2.47;;
36373;SDS011;22399;51.346;12.372;2023-03-11T10:16:14;8.23;;;2.97;;
36373;SDS011;22399;51.346;12.372;2023-03-11T10:18:53;18.23;;;2.53;;
36373;SDS011;22399;51.346;12.372;2023-03-11T10:21:32;9.00;;;3.17;;
36373;SDS011;22399;51.346;12.372;2023-03-11T10:24:13;5.25;;;2.53;;
36373;SDS011;22399;51.346;12.372;2023-03-11T10:26:52;5.85;;;2.92;;
36373;SDS011;22399;51.346;12.372;2023-03-11T10:32:14;5.30;;;2.47;;
36373;SDS011;22399;51.346;12.372;2023-03-11T10:34:47;7.22;;;2.95;;
36373;SDS011;22399;51.346;12.372;2023-03-11T10:37:22;6.47;;;2.40;;
36373;SDS011;22399;51.346;12.372;2023-03-11T10:40:09;5.40;;;2.97;;
36373;SDS011;22399;51.346;12.372;2023-03-11T10:42:51;5.70;;;2.20;;
36373;SDS011;22399;51.346;12.372;2023-03-11T10:45:22;8.43;;;2.75;;
36373;SDS011;22399;51.346;12.372;2023-03-11T10:47:52;5.88;;;2.70;;
36373;SDS011;22399;51.346;12.372;2023-03-11T10:50:23;9.57;;;3.20;;
36373;SDS011;22399;51.346;12.372;2023-03-11T10:53:03;12.77;;;3.28;;
36373;SDS011;22399;51.346;12.372;2023-03-11T10:55:34;6.97;;;3.33;;
36373;SDS011;22399;51.346;12.372;2023-03-11T10:58:13;6.78;;;2.80;;
36373;SDS011;22399;51.346;12.372;2023-03-11T11:00:43;5.38;;;2.90;;
36373;SDS011;22399;51.346;12.372;2023-03-11T11:03:18;8.10;;;2.83;;
36373;SDS011;22399;51.346;12.372;2023-03-11T11:05:58;6.35;;;3.53;;
36373;SDS011;22399;51.346;12.372;2023-03-11T11:08:28;6.47;;;3.38;;
36373;SDS011;22399;51.346;12.372;2023-03-11T11:10:57;8.63;;;3.47;;
36373;SDS011;22399;51.346;12.372;2023-03-11T11:13:28;4.88;;;2.47;;
36373;SDS011;22399;51.346;12.372;2023-03-11T11:15:59;4.63;;;2.40;;
36373;SDS011;22399;51.346;12.372;2023-03-11T11:18:30;7.22;;;3.28;;
36373;SDS011;22399;51.346;12.372;2023-03-11T11:21:02;6.38;;;3.20;;
36373;SDS011;22399;51.346;12.372;2023-03-11T11:23:35;11.43;;;2.90;;
36373;SDS011;22399;51.346;12.372;2023-03-11T11:26:12;5.80;;;2.75;;
36373;SDS011;22399;51.346;12.372;2023-03-11T11:28:45;6.15;;;2.72;;
36373;SDS011;22399;51.346;12.372;2023-03-11T11:31:35;5.78;;;2.78;;
36373;SDS011;22399;51.346;12.372;2023-03-11T11:34:13;9.43;;;3.67;;
36373;SDS011;22399;51.346;12.372;2023-03-11T11:36:55;10.73;;;3.33;;
36373;SDS011;22399;51.346;12.372;2023-03-11T11:39:25;4.25;;;2.30;;
36373;SDS011;22399;51.346;12.372;2023-03-11T11:41:55;8.20;;;2.88;;
36373;SDS011;22399;51.346;12.372;2023-03-11T11:44:27;8.00;;;3.25;;
36373;SDS011;22399;51.346;12.372;2023-03-11T11:47:00;6.07;;;3.10;;
36373;SDS011;22399;51.346;12.372;2023-03-11T11:49:36;7.82;;;3.45;;
36373;SDS011;22399;51.346;12.372;2023-03-11T11:52:11;7.90;;;2.92;;
36373;SDS011;22399;51.346;12.372;2023-03-11T11:54:42;5.78;;;2.78;;
36373;SDS011;22399;51.346;12.372;2023-03-11T11:57:18;6.93;;;3.00;;
36373;SDS011;22399;51.346;12.372;2023-03-11T11:59:50;8.35;;;3.22;;
36373;SDS011;22399;51.346;12.372;2023-03-11T12:02:25;7.38;;;3.50;;
36373;SDS011;22399;51.346;12.372;2023-03-11T12:05:06;9.57;;;3.00;;
36373;SDS011;22399;51.346;12.372;2023-03-11T12:07:46;6.18;;;2.80;;
36373;SDS011;22399;51.346;12.372;2023-03-11T12:10:25;6.32;;;3.15;;
36373;SDS011;22399;51.346;12.372;2023-03-11T12:15:59;8.65;;;3.03;;
36373;SDS011;22399;51.346;12.372;2023-03-11T12:18:33;4.97;;;2.83;;
36373;SDS011;22399;51.346;12.372;2023-03-11T12:21:09;6.88;;;3.10;;
36373;SDS011;22399;51.346;12.372;2023-03-11T12:23:52;6.65;;;2.33;;
36373;SDS011;22399;51.346;12.372;2023-03-11T12:26:31;10.52;;;3.00;;
36373;SDS011;22399;51.346;12.372;2023-03-11T12:29:03;8.10;;;2.75;;
36373;SDS011;22399;51.346;12.372;2023-03-11T12:31:43;6.28;;;2.80;;
36373;SDS011;22399;51.346;12.372;2023-03-11T12:34:13;5.70;;;2.55;;
36373;SDS011;22399;51.346;12.372;2023-03-11T12:36:44;4.93;;;2.65;;
36373;SDS011;22399;51.346;12.372;2023-03-11T12:39:19;9.93;;;2.90;;
36373;SDS011;22399;51.346;12.372;2023-03-11T12:41:58;6.72;;;2.15;;
36373;SDS011;22399;51.346;12.372;2023-03-11T12:44:42;14.65;;;2.67;;
36373;SDS011;22399;51.346;12.372;2023-03-11T12:47:17;5.63;;;3.13;;
36373;SDS011;22399;51.346;12.372;2023-03-11T12:49:48;8.70;;;2.40;;
36373;SDS011;22399;51.346;12.372;2023-03-11T12:52:22;7.35;;;2.20;;
36373;SDS011;22399;51.346;12.372;2023-03-11T12:58:15;10.82;;;2.63;;
36373;SDS011;22399;51.346;12.372;2023-03-11T13:01:02;5.47;;;2.78;;
36373;SDS011;22399;51.346;12.372;2023-03-11T13:03:53;6.20;;;2.70;;
36373;SDS011;22399;51.346;12.372;2023-03-11T13:09:32;6.80;;;2.75;;
36373;SDS011;22399;51.346;12.372;2023-03-11T13:12:01;8.40;;;2.95;;
36373;SDS011;22399;51.346;12.372;2023-03-11T13:14:30;9.32;;;3.05;;
36373;SDS011;22399;51.346;12.372;2023-03-11T13:19:53;10.40;;;4.05;;
36373;SDS011;22399;51.346;12.372;2023-03-11T13:25:41;13.32;;;3.05;;
36373;SDS011;22399;51.346;12.372;2023-03-11T13:28:21;9.63;;;3.08;;
36373;SDS011;22399;51.346;12.372;2023-03-11T13:31:03;10.43;;;3.42;;
36373;SDS011;22399;51.346;12.372;2023-03-11T13:33:50;10.63;;;2.92;;
36373;SDS011;22399;51.346;12.372;2023-03-11T13:36:34;7.78;;;2.42;;
36373;SDS011;22399;51.346;12.372;2023-03-11T13:42:15;7.10;;;3.25;;
36373;SDS011;22399;51.346;12.372;2023-03-11T13:44:48;10.05;;;2.65;;
36373;SDS011;22399;51.346;12.372;2023-03-11T13:47:18;6.68;;;2.22;;
36373;SDS011;22399;51.346;12.372;2023-03-11T13:49:49;7.43;;;3.17;;
36373;SDS011;22399;51.346;12.372;2023-03-11T13:52:25;9.85;;;2.85;;
36373;SDS011;22399;51.346;12.372;2023-03-11T13:54:58;6.57;;;2.60;;
36373;SDS011;22399;51.346;12.372;2023-03-11T13:57:30;5.20;;;2.13;;
36373;SDS011;22399;51.346;12.372;2023-03-11T14:00:04;6.72;;;2.17;;
36373;SDS011;22399;51.346;12.372;2023-03-11T14:02:44;4.18;;;2.45;;
36373;SDS011;22399;51.346;12.372;2023-03-11T14:05:18;3.38;;;2.00;;
36373;SDS011;22399;51.346;12.372;2023-03-11T14:07:50;8.10;;;2.75;;
36373;SDS011;22399;51.346;12.372;2023-03-11T14:10:20;6.20;;;2.67;;
36373;SDS011;22399;51.346;12.372;2023-03-11T14:12:55;5.38;;;2.15;;
36373;SDS011;22399;51.346;12.372;2023-03-11T14:15:36;7.78;;;3.20;;
36373;SDS011;22399;51.346;12.372;2023-03-11T14:20:58;7.47;;;2.67;;
36373;SDS011;22399;51.346;12.372;2023-03-11T14:23:29;6.65;;;1.92;;
36373;SDS011;22399;51.346;12.372;2023-03-11T14:26:02;8.15;;;2.47;;
36373;SDS011;22399;51.346;12.372;2023-03-11T14:28:39;4.47;;;2.75;;
36373;SDS011;22399;51.346;12.372;2023-03-11T14:31:20;9.57;;;2.50;;
36373;SDS011;22399;51.346;12.372;2023-03-11T14:33:55;4.93;;;2.25;;
36373;SDS011;22399;51.346;12.372;2023-03-11T14:36:30;3.05;;;1.80;;
36373;SDS011;22399;51.346;12.372;2023-03-11T14:39:24;4.32;;;2.10;;
36373;SDS011;22399;51.346;12.372;2023-03-11T14:42:03;5.32;;;2.00;;
36373;SDS011;22399;51.346;12.372;2023-03-11T14:44:40;1.77;;;1.45;;
36373;SDS011;22399;51.346;12.372;2023-03-11T14:47:10;2.30;;;1.23;;
36373;SDS011;22399;51.346;12.372;2023-03-11T14:49:45;2.28;;;1.17;;
36373;SDS011;22399;51.346;12.372;2023-03-11T14:52:17;3.60;;;2.00;;
36373;SDS011;22399;51.346;12.372;2023-03-11T14:54:49;2.80;;;1.67;;
36373;SDS011;22399;51.346;12.372;2023-03-11T14:57:21;1.73;;;1.08;;
36373;SDS011;22399;51.346;12.372;2023-03-11T15:00:04;17.50;;;1.33;;
36373;SDS011;22399;51.346;12.372;2023-03-11T15:02:41;3.90;;;1.60;;
36373;SDS011;22399;51.346;12.372;2023-03-11T15:05:15;12.93;;;1.52;;
36373;SDS011;22399;51.346;12.372;2023-03-11T15:07:48;3.78;;;2.00;;
36373;SDS011;22399;51.346;12.372;2023-03-11T15:10:25;3.70;;;1.85;;
36373;SDS011;22399;51.346;12.372;2023-03-11T15:13:02;2.33;;;1.10;;
36373;SDS011;22399;51.346;12.372;2023-03-11T15:15:33;6.20;;;1.73;;
36373;SDS011;22399;51.346;12.372;2023-03-11T15:18:01;5.43;;;1.65;;
36373;SDS011;22399;51.346;12.372;2023-03-11T15:20:31;3.13;;;1.50;;
36373;SDS011;22399;51.346;12.372;2023-03-11T15:23:01;4.38;;;1.50;;
36373;SDS011;22399;51.346;12.372;2023-03-11T15:25:33;1.95;;;1.15;;